TimeCDT,TemperatureF,Dew PointF,Humidity,Sea Level PressureIn,VisibilityMPH,Wind Direction,Wind SpeedMPH,Gust SpeedMPH,PrecipitationIn,Events,Conditions,WindDirDegrees,DateUTC
12:52 AM,73.0,55.9,55,30.07,10.0,SE,8.1,-,N/A,,Partly Cloudy,130,2013-09-05 05:52:00
1:52 AM,72.0,55.9,57,30.07,10.0,SE,8.1,-,N/A,,Clear,140,2013-09-05 06:52:00
2:52 AM,71.1,55.9,59,30.06,10.0,Calm,Calm,-,N/A,,Clear,0,2013-09-05 07:52:00
3:52 AM,71.1,55.0,57,30.06,10.0,SSE,5.8,-,N/A,,Clear,160,2013-09-05 08:52:00
4:52 AM,69.1,55.9,63,30.06,10.0,South,3.5,-,N/A,,Clear,170,2013-09-05 09:52:00
5:52 AM,69.1,57.0,65,30.05,10.0,Calm,Calm,-,N/A,,Clear,0,2013-09-05 10:52:00
6:52 AM,66.9,57.0,70,30.05,10.0,Calm,Calm,-,N/A,,Clear,0,2013-09-05 11:52:00
7:52 AM,66.9,57.9,73,30.05,10.0,East,4.6,-,N/A,,Clear,80,2013-09-05 12:52:00
8:52 AM,69.1,59.0,70,30.05,10.0,Calm,Calm,-,N/A,,Clear,0,2013-09-05 13:52:00
9:52 AM,72.0,59.0,64,30.05,10.0,SE,8.1,-,N/A,,Clear,140,2013-09-05 14:52:00
10:52 AM,75.0,61.0,62,30.04,10.0,SSE,8.1,-,N/A,,Clear,160,2013-09-05 15:52:00
11:52 AM,79.0,62.1,56,30.02,10.0,SSE,9.2,-,N/A,,Clear,150,2013-09-05 16:52:00
12:52 PM,84.9,64.9,51,30.00,10.0,SSE,8.1,-,N/A,,Clear,160,2013-09-05 17:52:00
1:52 PM,89.1,64.9,45,29.96,10.0,SSE,9.2,16.1,N/A,,Clear,160,2013-09-05 18:52:00
2:52 PM,91.0,64.9,42,29.95,10.0,SSE,9.2,-,N/A,,Clear,150,2013-09-05 19:52:00
3:52 PM,93.0,64.9,39,29.92,10.0,SSE,6.9,-,N/A,,Clear,150,2013-09-05 20:52:00
4:52 PM,93.0,63.0,37,29.91,10.0,SSE,8.1,-,N/A,,Clear,150,2013-09-05 21:52:00
5:52 PM,93.0,64.0,38,29.89,10.0,SSE,6.9,-,N/A,,Clear,150,2013-09-05 22:52:00
6:52 PM,91.9,63.0,38,29.88,10.0,SSE,6.9,-,N/A,,Clear,150,2013-09-05 23:52:00
7:52 PM,88.0,63.0,43,29.87,10.0,Calm,Calm,-,N/A,,Clear,0,2013-09-06 00:52:00
8:52 PM,82.0,64.9,56,29.88,10.0,Calm,Calm,-,N/A,,Clear,0,2013-09-06 01:52:00
9:52 PM,75.9,64.0,67,29.89,10.0,Calm,Calm,-,N/A,,Clear,0,2013-09-06 02:52:00
10:52 PM,71.1,63.0,75,29.90,10.0,Calm,Calm,-,N/A,,Clear,0,2013-09-06 03:52:00
11:52 PM,72.0,62.1,71,29.89,10.0,Calm,Calm,-,N/A,,Clear,0,2013-09-06 04:52:00